Time;durP1;ratioP1;P1;durP2;ratioP2;P2;SDS_P1;SDS_P2;PMS_P1;PMS_P2;Temp;Humidity;BMP_temperature;BMP_pressure;BME280_temperature;BME280_humidity;BME280_pressure;Samples;Min_cycle;Max_cycle;Signal;HPM_P1;HPM_P2
2024/02/12 00:00:43;;;;;;;0.20;0.20;;;;;;;;;;5079060;28;20027;-71
2024/02/12 00:03:09;;;;;;;0.55;0.47;;;;;;;;;;5093600;28;20099;-71
2024/02/12 00:05:35;;;;;;;2.72;1.25;;;;;;;;;;5075494;28;20059;-71
2024/02/12 00:08:04;;;;;;;0.13;0.13;;;;;;;;;;5093823;28;20123;-71
2024/02/12 00:10:30;;;;;;;0.47;0.47;;;;;;;;;;5093772;28;20464;-71
2024/02/12 00:12:55;;;;;;;0.10;0.10;;;;;;;;;;5093394;28;20073;-71
2024/02/12 00:15:21;;;;;;;0.40;0.40;;;;;;;;;;5093060;28;20127;-71
2024/02/12 00:17:49;;;;;;;0.45;0.45;;;;;;;;;;5093715;28;20089;-71
2024/02/12 00:20:16;;;;;;;0.47;0.45;;;;;;;;;;5093660;28;20024;-71
2024/02/12 00:22:41;;;;;;;0.95;0.80;;;;;;;;;;5093343;28;20027;-71
2024/02/12 00:25:07;;;;;;;0.40;0.40;;;;;;;;;;5093184;28;20016;-71
2024/02/12 00:27:34;;;;;;;0.00;0.00;;;;;;;;;;5093666;28;20244;-67
2024/02/12 00:29:59;;;;;;;0.00;0.00;;;;;;;;;;5093157;28;20016;-66
2024/02/12 00:32:26;;;;;;;0.10;0.10;;;;;;;;;;5093320;28;20544;-67
2024/02/12 00:34:52;;;;;;;0.00;0.00;;;;;;;;;;5093157;28;20456;-67
2024/02/12 00:37:17;;;;;;;0.20;0.20;;;;;;;;;;5093462;28;20024;-66
2024/02/12 00:39:43;;;;;;;0.47;0.43;;;;;;;;;;5075103;28;20016;-67
2024/02/12 00:42:12;;;;;;;0.00;0.00;;;;;;;;;;5093487;28;20035;-67
2024/02/12 00:44:38;;;;;;;0.00;0.00;;;;;;;;;;5093426;28;20435;-66
2024/02/12 00:47:03;;;;;;;0.00;0.00;;;;;;;;;;5093095;28;20099;-66
2024/02/12 00:49:28;;;;;;;0.10;0.10;;;;;;;;;;5074445;28;20028;-67
2024/02/12 00:51:55;;;;;;;0.20;0.20;;;;;;;;;;5072934;28;20104;-67
2024/02/12 00:54:20;;;;;;;0.50;0.50;;;;;;;;;;5072838;28;20272;-67
2024/02/12 00:56:47;;;;;;;0.00;0.00;;;;;;;;;;5072751;28;20028;-67
2024/02/12 03:20:17;;;;;;;0.35;0.35;;;;;;;;;;5071953;28;20047;-71
2024/02/12 03:22:42;;;;;;;0.50;0.50;;;;;;;;;;5074284;28;20029;-71
2024/02/12 03:25:08;;;;;;;0.20;0.20;;;;;;;;;;5073980;28;20396;-71
2024/02/12 03:27:37;;;;;;;0.30;0.30;;;;;;;;;;5073959;28;20086;-71
2024/02/12 03:30:05;;;;;;;1.17;1.08;;;;;;;;;;5074178;28;20472;-71
2024/02/12 03:32:30;;;;;;;0.03;0.03;;;;;;;;;;5074163;28;20472;-71
2024/02/12 03:34:57;;;;;;;0.10;0.10;;;;;;;;;;5073949;28;20021;-71
2024/02/12 03:37:22;;;;;;;0.00;0.00;;;;;;;;;;5073987;28;20482;-71
2024/02/12 03:39:47;;;;;;;0.05;0.05;;;;;;;;;;5073615;28;20092;-71
2024/02/12 03:42:13;;;;;;;0.93;0.38;;;;;;;;;;5073969;28;20103;-71
2024/02/12 03:44:40;;;;;;;0.20;0.20;;;;;;;;;;5073595;28;20381;-71
2024/02/12 03:47:05;;;;;;;0.38;0.38;;;;;;;;;;5073626;28;20167;-71
2024/02/12 04:00:26;;;;;;;0.10;0.10;;;;;;;;;;5093214;28;20493;-71
2024/02/12 04:02:51;;;;;;;0.20;0.20;;;;;;;;;;5093600;28;20016;-71
2024/02/12 04:05:17;;;;;;;0.00;0.00;;;;;;;;;;5093592;28;20030;-71
2024/02/12 04:07:43;;;;;;;0.43;0.43;;;;;;;;;;5093503;28;20094;-71
2024/02/12 04:10:10;;;;;;;0.10;0.10;;;;;;;;;;5093837;28;20049;-71
2024/02/12 04:12:36;;;;;;;0.03;0.03;;;;;;;;;;5093309;28;20024;-71
2024/02/12 04:15:01;;;;;;;0.25;0.25;;;;;;;;;;5093624;28;20032;-71
2024/02/12 04:17:28;;;;;;;0.13;0.13;;;;;;;;;;5093458;28;20020;-71
2024/02/12 04:19:54;;;;;;;0.55;0.38;;;;;;;;;;5093301;28;20748;-71
2024/02/12 04:22:20;;;;;;;0.22;0.20;;;;;;;;;;5093373;28;20082;-71
2024/02/12 04:24:45;;;;;;;0.15;0.15;;;;;;;;;;5093614;28;20024;-71
2024/02/12 04:27:11;;;;;;;0.13;0.13;;;;;;;;;;5092975;28;20038;-71
2024/02/12 04:29:40;;;;;;;0.40;0.40;;;;;;;;;;5093348;28;20031;-71
2024/02/12 04:32:11;;;;;;;0.30;0.30;;;;;;;;;;5093537;28;20494;-71
2024/02/12 04:34:37;;;;;;;0.03;0.03;;;;;;;;;;5093183;28;20020;-71
2024/02/12 04:37:03;;;;;;;0.15;0.15;;;;;;;;;;5073882;28;20480;-71
2024/02/12 04:39:28;;;;;;;0.10;0.10;;;;;;;;;;5073095;28;20032;-71
2024/02/12 04:41:54;;;;;;;0.20;0.20;;;;;;;;;;5073058;28;20020;-71
2024/02/12 04:44:20;;;;;;;0.10;0.10;;;;;;;;;;5073194;28;20277;-71
2024/02/12 04:46:46;;;;;;;0.00;0.00;;;;;;;;;;5072946;28;20077;-71
2024/02/12 04:49:11;;;;;;;0.00;0.00;;;;;;;;;;5072970;28;20119;-71
2024/02/12 04:51:37;;;;;;;0.10;0.10;;;;;;;;;;5074023;28;20078;-68
2024/02/12 04:54:02;;;;;;;0.57;0.57;;;;;;;;;;5073017;28;20078;-71
2024/02/12 04:56:28;;;;;;;0.20;0.20;;;;;;;;;;5072918;28;20409;-71
2024/02/12 04:58:55;;;;;;;0.13;0.13;;;;;;;;;;5073959;28;20023;-71
2024/02/12 05:01:20;;;;;;;0.85;0.80;;;;;;;;;;5076524;28;20278;-71
2024/02/12 05:03:50;;;;;;;0.60;0.35;;;;;;;;;;5093325;28;20020;-71
2024/02/12 05:06:18;;;;;;;0.43;0.40;;;;;;;;;;5091137;28;20081;-71
2024/02/12 05:08:44;;;;;;;0.70;0.52;;;;;;;;;;5084683;28;20032;-77
2024/02/12 05:11:09;;;;;;;0.20;0.20;;;;;;;;;;5092781;28;20046;-67
2024/02/12 05:13:35;;;;;;;0.57;0.47;;;;;;;;;;5096285;28;20016;-66
2024/02/12 05:16:02;;;;;;;0.30;0.30;;;;;;;;;;5097075;28;20017;-66
2024/02/12 05:23:58;;;;;;;0.35;0.35;;;;;;;;;;5096940;28;20051;-66
2024/02/12 05:26:23;;;;;;;4.30;0.70;;;;;;;;;;5096536;28;20472;-66
2024/02/12 05:28:48;;;;;;;0.77;0.77;;;;;;;;;;5096619;28;20028;-67
2024/02/12 05:31:14;;;;;;;0.10;0.10;;;;;;;;;;5096453;28;20268;-67
2024/02/12 05:33:39;;;;;;;0.83;0.43;;;;;;;;;;5096629;28;20269;-67
2024/02/12 05:36:06;;;;;;;0.43;0.43;;;;;;;;;;5096417;28;20244;-67
2024/02/12 05:38:31;;;;;;;0.17;0.17;;;;;;;;;;5096589;28;20036;-66
2024/02/12 05:40:56;;;;;;;0.10;0.10;;;;;;;;;;5096598;28;20383;-66
2024/02/12 05:43:22;;;;;;;1.20;0.60;;;;;;;;;;5096481;28;20448;-67
2024/02/12 05:45:47;;;;;;;0.10;0.10;;;;;;;;;;5096302;28;20020;-67
2024/02/12 05:48:12;;;;;;;0.80;0.80;;;;;;;;;;5096136;28;20237;-66
2024/02/12 05:50:37;;;;;;;0.20;0.20;;;;;;;;;;5096143;28;20654;-67
2024/02/12 05:53:03;;;;;;;0.20;0.20;;;;;;;;;;5096082;28;20023;-67
2024/02/12 05:55:29;;;;;;;0.43;0.43;;;;;;;;;;5096051;28;20016;-67
2024/02/12 05:57:54;;;;;;;0.07;0.07;;;;;;;;;;5096032;28;20020;-66
2024/02/12 06:00:20;;;;;;;0.10;0.10;;;;;;;;;;5096156;28;20332;-66
2024/02/12 06:02:45;;;;;;;0.17;0.17;;;;;;;;;;5096139;28;20030;-67
2024/02/12 06:05:10;;;;;;;0.47;0.35;;;;;;;;;;5096109;28;20012;-66
2024/02/12 06:07:35;;;;;;;0.27;0.27;;;;;;;;;;5095821;28;20507;-67
2024/02/12 06:10:03;;;;;;;1.10;0.57;;;;;;;;;;5095815;28;20736;-67
2024/02/12 06:12:28;;;;;;;0.73;0.55;;;;;;;;;;5095706;28;20020;-67
2024/02/12 06:14:54;;;;;;;1.48;0.38;;;;;;;;;;5095798;28;20027;-67
2024/02/12 06:17:19;;;;;;;0.52;0.52;;;;;;;;;;5095987;28;20377;-71
2024/02/12 06:19:44;;;;;;;0.63;0.63;;;;;;;;;;5095436;28;20044;-71
2024/02/12 06:22:11;;;;;;;0.32;0.32;;;;;;;;;;5095445;28;20288;-71
2024/02/12 06:24:36;;;;;;;0.30;0.30;;;;;;;;;;5094965;28;20031;-71
2024/02/12 06:27:01;;;;;;;0.10;0.10;;;;;;;;;;5077209;28;20028;-71
2024/02/12 06:29:27;;;;;;;0.25;0.25;;;;;;;;;;5095314;28;20031;-70
2024/02/12 06:31:52;;;;;;;0.43;0.30;;;;;;;;;;5095623;28;20117;-71
2024/02/12 06:34:17;;;;;;;0.93;0.85;;;;;;;;;;5094923;28;20033;-70
2024/02/12 06:36:43;;;;;;;0.10;0.10;;;;;;;;;;5095230;28;20070;-71
2024/02/12 06:39:08;;;;;;;0.10;0.10;;;;;;;;;;5095210;28;20294;-71
2024/02/12 06:41:34;;;;;;;0.20;0.20;;;;;;;;;;5095092;28;20268;-71
2024/02/12 06:43:59;;;;;;;0.35;0.35;;;;;;;;;;5095116;28;20309;-71
2024/02/12 06:46:25;;;;;;;0.40;0.40;;;;;;;;;;5094975;28;20107;-71
2024/02/12 06:48:50;;;;;;;0.00;0.00;;;;;;;;;;5095269;28;20024;-71
2024/02/12 06:51:15;;;;;;;0.10;0.10;;;;;;;;;;5094944;28;20016;-71
2024/02/12 06:53:43;;;;;;;0.20;0.20;;;;;;;;;;5094841;28;20274;-71
2024/02/12 06:56:09;;;;;;;0.47;0.47;;;;;;;;;;5095060;28;20573;-71
2024/02/12 06:58:34;;;;;;;0.50;0.50;;;;;;;;;;5094764;28;20023;-70
2024/02/12 07:00:59;;;;;;;0.43;0.43;;;;;;;;;;5094811;28;20012;-71
2024/02/12 07:03:25;;;;;;;0.17;0.17;;;;;;;;;;5094774;28;20031;-70
2024/02/12 07:05:50;;;;;;;0.40;0.40;;;;;;;;;;5094905;28;20315;-71
2024/02/12 07:08:18;;;;;;;0.57;0.57;;;;;;;;;;5094626;28;20245;-71
2024/02/12 07:10:43;;;;;;;0.47;0.47;;;;;;;;;;5094852;28;20016;-71
2024/02/12 07:13:09;;;;;;;0.63;0.63;;;;;;;;;;5094697;28;20024;-71
2024/02/12 07:15:35;;;;;;;1.07;0.83;;;;;;;;;;5094458;28;20078;-71
2024/02/12 07:18:00;;;;;;;0.17;0.17;;;;;;;;;;5094343;28;20306;-71
2024/02/12 07:20:25;;;;;;;0.50;0.50;;;;;;;;;;5094294;28;20512;-70
2024/02/12 07:22:50;;;;;;;0.40;0.40;;;;;;;;;;5094360;28;20099;-71
2024/02/12 07:25:16;;;;;;;0.38;0.38;;;;;;;;;;5094280;28;20320;-71
2024/02/12 07:27:43;;;;;;;0.25;0.25;;;;;;;;;;5094332;28;20465;-67
2024/02/12 07:30:09;;;;;;;0.77;0.77;;;;;;;;;;5094248;28;20099;-66
2024/02/12 07:32:37;;;;;;;0.25;0.20;;;;;;;;;;5094088;28;20440;-66
2024/02/12 07:35:03;;;;;;;0.50;0.38;;;;;;;;;;5093508;28;20039;-67
2024/02/12 07:37:28;;;;;;;1.42;0.88;;;;;;;;;;5094333;28;20042;-67
2024/02/12 07:39:54;;;;;;;0.10;0.10;;;;;;;;;;5094028;28;20380;-67
2024/02/12 07:42:20;;;;;;;0.47;0.40;;;;;;;;;;5094221;28;20799;-67
2024/02/12 07:44:45;;;;;;;1.38;0.93;;;;;;;;;;5093891;28;20020;-67
2024/02/12 07:47:11;;;;;;;0.23;0.23;;;;;;;;;;5093921;28;20031;-66
2024/02/12 07:49:36;;;;;;;0.47;0.47;;;;;;;;;;5093845;28;20241;-67
2024/02/12 07:52:02;;;;;;;0.40;0.40;;;;;;;;;;5093809;28;20054;-67
2024/02/12 07:54:31;;;;;;;0.10;0.10;;;;;;;;;;5093933;28;20439;-67
2024/02/12 07:56:56;;;;;;;0.63;0.63;;;;;;;;;;5093988;28;20537;-67
2024/02/12 07:59:21;;;;;;;0.85;0.45;;;;;;;;;;5093785;28;20020;-67
2024/02/12 08:01:47;;;;;;;0.28;0.28;;;;;;;;;;5093708;28;20104;-66
2024/02/12 08:04:12;;;;;;;0.05;0.05;;;;;;;;;;5093653;28;20028;-66
2024/02/12 08:06:38;;;;;;;0.30;0.30;;;;;;;;;;5093628;28;20028;-66
2024/02/12 08:09:03;;;;;;;0.17;0.17;;;;;;;;;;5093799;28;20245;-66
2024/02/12 08:11:28;;;;;;;0.82;0.50;;;;;;;;;;5093517;28;20081;-66
2024/02/12 08:13:54;;;;;;;0.30;0.30;;;;;;;;;;5093719;28;20019;-66
2024/02/12 08:16:21;;;;;;;0.85;0.82;;;;;;;;;;5093490;28;20418;-66
2024/02/12 08:18:46;;;;;;;0.30;0.30;;;;;;;;;;5093569;28;20048;-67
2024/02/12 08:21:11;;;;;;;1.45;1.02;;;;;;;;;;5093656;28;20069;-66
2024/02/12 08:23:37;;;;;;;0.77;0.77;;;;;;;;;;5093433;28;20078;-66
2024/02/12 08:26:04;;;;;;;0.10;0.10;;;;;;;;;;5093360;28;20446;-66
2024/02/12 08:28:30;;;;;;;0.25;0.25;;;;;;;;;;5093461;28;20024;-66
2024/02/12 08:30:55;;;;;;;0.20;0.20;;;;;;;;;;5093450;28;20016;-66
2024/02/12 08:33:20;;;;;;;0.40;0.40;;;;;;;;;;5093522;28;20028;-67
2024/02/12 08:35:46;;;;;;;0.20;0.20;;;;;;;;;;5093333;28;20483;-66
2024/02/12 08:38:11;;;;;;;0.80;0.80;;;;;;;;;;5093654;28;20016;-71
2024/02/12 08:40:37;;;;;;;0.55;0.55;;;;;;;;;;5093182;28;20016;-71
2024/02/12 08:43:02;;;;;;;0.87;0.80;;;;;;;;;;5093259;28;20046;-71
2024/02/12 08:45:27;;;;;;;0.25;0.25;;;;;;;;;;5093490;28;20750;-70
2024/02/12 08:47:53;;;;;;;1.27;1.17;;;;;;;;;;5097224;28;20463;-71
2024/02/12 08:50:18;;;;;;;0.38;0.30;;;;;;;;;;5097331;28;20048;-71
2024/02/12 08:52:43;;;;;;;0.88;0.73;;;;;;;;;;5097232;28;20403;-71
2024/02/12 08:55:11;;;;;;;0.00;0.00;;;;;;;;;;5097193;28;20086;-71
2024/02/12 08:57:41;;;;;;;0.55;0.55;;;;;;;;;;5097216;28;20247;-71
2024/02/12 09:00:08;;;;;;;0.60;0.50;;;;;;;;;;5078747;28;20107;-71
2024/02/12 09:02:33;;;;;;;0.05;0.05;;;;;;;;;;5097090;28;20016;-71
2024/02/12 09:04:59;;;;;;;0.53;0.50;;;;;;;;;;5097292;28;20095;-71
2024/02/12 09:07:26;;;;;;;0.00;0.00;;;;;;;;;;5096892;28;20260;-71
2024/02/12 09:09:51;;;;;;;0.17;0.17;;;;;;;;;;5097169;28;20035;-71
2024/02/12 09:12:17;;;;;;;0.40;0.40;;;;;;;;;;5096810;28;20020;-71
2024/02/12 09:14:42;;;;;;;0.10;0.10;;;;;;;;;;5096816;28;20479;-71
2024/02/12 09:17:07;;;;;;;0.10;0.10;;;;;;;;;;5097055;28;20245;-71
2024/02/12 09:19:32;;;;;;;0.20;0.20;;;;;;;;;;5096537;28;20273;-71
2024/02/12 09:21:58;;;;;;;0.20;0.20;;;;;;;;;;5096933;28;20249;-71
2024/02/12 09:24:23;;;;;;;0.08;0.08;;;;;;;;;;5096707;28;20245;-71
2024/02/12 09:26:48;;;;;;;0.00;0.00;;;;;;;;;;5096625;28;20012;-70
2024/02/12 09:29:13;;;;;;;0.30;0.28;;;;;;;;;;5096829;28;20272;-71
2024/02/12 09:31:39;;;;;;;0.00;0.00;;;;;;;;;;5096549;28;20035;-71
2024/02/12 09:34:06;;;;;;;0.00;0.00;;;;;;;;;;5096412;28;20377;-71
2024/02/12 09:36:32;;;;;;;0.00;0.00;;;;;;;;;;5096427;28;20268;-71
2024/02/12 09:38:57;;;;;;;0.00;0.00;;;;;;;;;;5096610;28;20081;-71
2024/02/12 09:41:25;;;;;;;0.80;0.80;;;;;;;;;;5096599;28;20460;-70
2024/02/12 09:43:52;;;;;;;0.55;0.13;;;;;;;;;;5096217;28;20048;-70
2024/02/12 09:46:19;;;;;;;0.03;0.03;;;;;;;;;;5096280;28;20099;-70
2024/02/12 09:48:44;;;;;;;0.43;0.43;;;;;;;;;;5096552;28;20020;-67
2024/02/12 09:51:12;;;;;;;0.00;0.00;;;;;;;;;;5096106;28;20024;-67
2024/02/12 09:53:40;;;;;;;0.10;0.10;;;;;;;;;;5096272;28;20028;-67
2024/02/12 09:56:06;;;;;;;0.05;0.05;;;;;;;;;;5096071;28;20013;-67
2024/02/12 09:58:33;;;;;;;0.10;0.10;;;;;;;;;;5095169;28;20016;-66
2024/02/12 10:01:00;;;;;;;0.10;0.10;;;;;;;;;;5096188;28;20121;-67
2024/02/12 10:03:25;;;;;;;0.08;0.08;;;;;;;;;;5095902;28;20044;-66
2024/02/12 10:05:50;;;;;;;0.00;0.00;;;;;;;;;;5095877;28;20118;-67
2024/02/12 10:08:25;;;;;;;0.30;0.30;;;;;;;;;;5095828;28;20055;-67
2024/02/12 10:10:52;;;;;;;0.20;0.20;;;;;;;;;;5077968;28;20233;-67
2024/02/12 10:13:17;;;;;;;0.43;0.43;;;;;;;;;;5095629;28;20491;-66
2024/02/12 10:15:43;;;;;;;0.20;0.20;;;;;;;;;;5095631;28;20074;-66
2024/02/12 10:18:10;;;;;;;0.63;0.57;;;;;;;;;;5095873;28;20414;-66
2024/02/12 10:20:39;;;;;;;0.10;0.10;;;;;;;;;;5095447;28;20134;-66
2024/02/12 10:23:10;;;;;;;0.43;0.28;;;;;;;;;;5095606;28;20429;-67
2024/02/12 10:25:43;;;;;;;0.20;0.20;;;;;;;;;;5095563;28;20411;-66
2024/02/12 10:28:09;;;;;;;0.10;0.10;;;;;;;;;;5095697;28;20050;-66
2024/02/12 10:30:35;;;;;;;0.20;0.20;;;;;;;;;;5095366;28;20042;-67
2024/02/12 10:33:05;;;;;;;0.30;0.30;;;;;;;;;;5095602;28;20383;-67
2024/02/12 10:35:31;;;;;;;0.60;0.60;;;;;;;;;;5095183;28;20019;-66
2024/02/12 10:37:57;;;;;;;0.20;0.20;;;;;;;;;;5095195;28;20016;-67
2024/02/12 10:40:26;;;;;;;0.40;0.40;;;;;;;;;;5095221;28;20038;-66
2024/02/12 10:42:53;;;;;;;0.25;0.25;;;;;;;;;;5095123;28;20012;-66
2024/02/12 10:45:18;;;;;;;0.20;0.20;;;;;;;;;;5095045;28;20027;-67
2024/02/12 10:47:44;;;;;;;1.10;0.63;;;;;;;;;;5095317;28;20062;-66
2024/02/12 10:50:13;;;;;;;0.10;0.10;;;;;;;;;;5095275;28;20024;-67
2024/02/12 10:52:40;;;;;;;0.40;0.40;;;;;;;;;;5095220;28;20028;-67
2024/02/12 10:55:09;;;;;;;0.20;0.20;;;;;;;;;;5094783;28;20024;-67
2024/02/12 10:57:34;;;;;;;0.40;0.40;;;;;;;;;;5094882;28;20020;-66
2024/02/12 11:00:00;;;;;;;0.40;0.40;;;;;;;;;;5094840;28;20103;-66
2024/02/12 11:02:25;;;;;;;0.77;0.40;;;;;;;;;;5095039;28;20111;-67
2024/02/12 11:04:55;;;;;;;0.30;0.30;;;;;;;;;;5094670;28;20505;-66
2024/02/12 11:07:24;;;;;;;0.20;0.20;;;;;;;;;;5076477;28;20292;-66
2024/02/12 11:10:17;;;;;;;0.45;0.45;;;;;;;;;;5094602;28;20020;-66
2024/02/12 11:12:44;;;;;;;;;;;;;;;;;;5090701;28;20040;-67
2024/02/12 11:15:12;;;;;;;0.35;0.35;;;;;;;;;;5094686;28;20359;-66
2024/02/12 11:17:38;;;;;;;0.00;0.00;;;;;;;;;;5094415;28;20040;-66
2024/02/12 11:20:05;;;;;;;0.00;0.00;;;;;;;;;;5094129;28;20086;-66
2024/02/12 11:22:31;;;;;;;0.10;0.10;;;;;;;;;;5094352;28;20112;-67
2024/02/12 11:25:03;;;;;;;0.30;0.30;;;;;;;;;;5094594;28;20063;-67
2024/02/12 11:27:41;;;;;;;0.10;0.10;;;;;;;;;;5094268;28;20028;-67
2024/02/12 11:30:08;;;;;;;0.13;0.08;;;;;;;;;;5094458;28;20552;-66
2024/02/12 11:32:34;;;;;;;0.45;0.35;;;;;;;;;;5094429;28;20072;-66
2024/02/12 11:35:08;;;;;;;0.00;0.00;;;;;;;;;;5094064;28;20472;-66
2024/02/12 11:37:34;;;;;;;0.03;0.03;;;;;;;;;;5094165;28;20016;-66
2024/02/12 11:39:59;;;;;;;0.65;0.28;;;;;;;;;;5094371;28;20028;-67
2024/02/12 11:42:26;;;;;;;0.10;0.10;;;;;;;;;;5093981;28;20020;-67
2024/02/12 11:44:51;;;;;;;0.57;0.57;;;;;;;;;;5093916;28;20039;-67
2024/02/12 11:47:23;;;;;;;2.00;0.95;;;;;;;;;;5094193;28;20016;-66
2024/02/12 11:49:48;;;;;;;0.40;0.40;;;;;;;;;;5093941;28;20099;-67
2024/02/12 11:52:13;;;;;;;0.10;0.10;;;;;;;;;;5093833;28;20059;-66
2024/02/12 11:54:39;;;;;;;1.33;0.35;;;;;;;;;;5093740;28;20413;-66
2024/02/12 11:57:05;;;;;;;0.10;0.10;;;;;;;;;;5094050;28;20376;-67
2024/02/12 11:59:30;;;;;;;0.20;0.20;;;;;;;;;;5093819;28;20027;-67
2024/02/12 12:01:55;;;;;;;0.50;0.35;;;;;;;;;;5093616;28;20092;-67
2024/02/12 12:04:21;;;;;;;3.63;0.57;;;;;;;;;;5093696;28;20023;-66
2024/02/12 12:06:46;;;;;;;0.45;0.40;;;;;;;;;;5093647;28;20024;-66
2024/02/12 12:09:11;;;;;;;2.57;1.20;;;;;;;;;;5093722;28;20013;-71
2024/02/12 12:11:43;;;;;;;0.20;0.20;;;;;;;;;;5093472;28;20256;-71
2024/02/12 12:14:09;;;;;;;0.30;0.30;;;;;;;;;;5093484;28;20049;-71
2024/02/12 12:16:35;;;;;;;0.20;0.20;;;;;;;;;;5093508;28;20027;-71
2024/02/12 12:19:04;;;;;;;0.20;0.20;;;;;;;;;;5093536;28;20392;-71
2024/02/12 12:21:30;;;;;;;0.20;0.20;;;;;;;;;;5093297;28;20024;-70
2024/02/12 12:23:56;;;;;;;0.85;0.20;;;;;;;;;;5093384;28;20136;-72
2024/02/12 12:26:21;;;;;;;0.10;0.10;;;;;;;;;;5093658;28;20031;-72
2024/02/12 12:28:47;;;;;;;0.05;0.05;;;;;;;;;;5093387;28;20490;-71
2024/02/12 12:31:12;;;;;;;0.30;0.30;;;;;;;;;;5093620;28;20024;-71
2024/02/12 12:33:37;;;;;;;0.30;0.30;;;;;;;;;;5093343;28;20056;-71
2024/02/12 12:36:03;;;;;;;0.47;0.35;;;;;;;;;;5093555;28;20114;-71
2024/02/12 12:38:28;;;;;;;0.08;0.08;;;;;;;;;;5093309;28;20114;-71
2024/02/12 12:40:56;;;;;;;0.00;0.00;;;;;;;;;;5093238;28;20031;-71
2024/02/12 12:43:22;;;;;;;0.10;0.10;;;;;;;;;;5093284;28;20379;-71
2024/02/12 12:45:47;;;;;;;0.10;0.10;;;;;;;;;;5093494;28;20016;-71
2024/02/12 12:48:12;;;;;;;0.47;0.47;;;;;;;;;;5093236;28;20028;-72
2024/02/12 12:50:41;;;;;;;0.30;0.30;;;;;;;;;;5075069;28;20272;-71
2024/02/12 12:53:08;;;;;;;0.45;0.30;;;;;;;;;;5093163;28;20416;-71
2024/02/12 12:55:35;;;;;;;0.85;0.85;;;;;;;;;;5093292;28;20375;-71
2024/02/12 12:58:00;;;;;;;0.00;0.00;;;;;;;;;;5093353;28;20016;-71
2024/02/12 13:00:36;;;;;;;0.10;0.10;;;;;;;;;;5093349;28;20016;-72
2024/02/12 13:03:01;;;;;;;0.10;0.10;;;;;;;;;;5093343;28;20500;-71
2024/02/12 13:05:26;;;;;;;1.25;0.30;;;;;;;;;;5093097;28;20012;-71
2024/02/12 13:07:56;;;;;;;0.00;0.00;;;;;;;;;;5093007;28;20486;-71
2024/02/12 13:10:21;;;;;;;0.38;0.38;;;;;;;;;;5093221;28;20340;-71
2024/02/12 13:12:47;;;;;;;1.65;0.57;;;;;;;;;;5092917;28;20524;-71
2024/02/12 13:15:14;;;;;;;0.40;0.40;;;;;;;;;;5092883;28;20042;-71
2024/02/12 13:17:43;;;;;;;0.15;0.15;;;;;;;;;;5093331;28;20468;-71
2024/02/12 13:20:27;;;;;;;0.30;0.28;;;;;;;;;;5092699;28;20064;-71
2024/02/12 13:22:57;;;;;;;0.10;0.10;;;;;;;;;;5093162;28;20439;-71
2024/02/12 13:25:26;;;;;;;0.13;0.10;;;;;;;;;;5093115;28;20020;-72
2024/02/12 13:27:55;;;;;;;0.00;0.00;;;;;;;;;;5093071;28;20463;-71
2024/02/12 13:30:20;;;;;;;0.00;0.00;;;;;;;;;;5093012;28;20074;-71
2024/02/12 13:32:46;;;;;;;0.10;0.10;;;;;;;;;;5093255;28;20471;-71
2024/02/12 13:35:14;;;;;;;0.20;0.20;;;;;;;;;;5096411;28;20020;-71
2024/02/12 13:37:39;;;;;;;0.10;0.10;;;;;;;;;;5096673;28;20020;-71
2024/02/12 13:40:05;;;;;;;0.32;0.32;;;;;;;;;;5096332;28;20016;-71
2024/02/12 13:42:32;;;;;;;0.10;0.10;;;;;;;;;;5096384;28;20464;-71
2024/02/12 13:44:57;;;;;;;0.00;0.00;;;;;;;;;;5096363;28;20506;-71
2024/02/12 13:47:22;;;;;;;0.00;0.00;;;;;;;;;;5096276;28;20055;-71
2024/02/12 13:49:49;;;;;;;0.65;0.43;;;;;;;;;;5096433;28;20739;-71
2024/02/12 13:52:16;;;;;;;0.55;0.40;;;;;;;;;;5096366;28;20425;-71
2024/02/12 13:54:41;;;;;;;0.77;0.50;;;;;;;;;;5096295;28;20028;-71
2024/02/12 13:57:06;;;;;;;0.00;0.00;;;;;;;;;;5077786;28;20491;-71
2024/02/12 13:59:32;;;;;;;0.10;0.10;;;;;;;;;;5096074;28;20476;-71
2024/02/12 14:01:57;;;;;;;0.00;0.00;;;;;;;;;;5096233;28;20012;-71
2024/02/12 14:04:22;;;;;;;0.00;0.00;;;;;;;;;;5096226;28;20079;-71
2024/02/12 14:06:47;;;;;;;0.10;0.10;;;;;;;;;;5095852;28;20099;-71
2024/02/12 14:09:20;;;;;;;0.10;0.10;;;;;;;;;;5096122;28;20248;-71
2024/02/12 14:11:46;;;;;;;0.00;0.00;;;;;;;;;;5095957;28;20253;-71
2024/02/12 14:14:11;;;;;;;0.00;0.00;;;;;;;;;;5095910;28;20065;-71
2024/02/12 14:16:37;;;;;;;0.00;0.00;;;;;;;;;;5095714;28;20024;-71
2024/02/12 14:19:02;;;;;;;0.10;0.10;;;;;;;;;;5095659;28;20245;-71
2024/02/12 14:21:30;;;;;;;0.30;0.30;;;;;;;;;;5095896;28;20022;-71
2024/02/12 14:23:55;;;;;;;0.10;0.10;;;;;;;;;;5095808;28;20588;-71
2024/02/12 14:26:21;;;;;;;0.27;0.27;;;;;;;;;;5095549;28;20028;-71
2024/02/12 14:28:46;;;;;;;0.10;0.10;;;;;;;;;;5095492;28;20020;-67
2024/02/12 14:31:12;;;;;;;0.08;0.08;;;;;;;;;;5095398;28;20016;-67
2024/02/12 14:33:37;;;;;;;0.10;0.10;;;;;;;;;;5095295;28;20069;-67
2024/02/12 14:36:03;;;;;;;0.05;0.05;;;;;;;;;;5095304;28;20024;-67
2024/02/12 14:38:28;;;;;;;0.00;0.00;;;;;;;;;;5095566;28;20020;-66
2024/02/12 14:40:56;;;;;;;0.10;0.10;;;;;;;;;;5095205;28;20353;-67
2024/02/12 14:43:21;;;;;;;0.08;0.08;;;;;;;;;;5095386;28;20020;-66
2024/02/12 14:45:47;;;;;;;0.10;0.10;;;;;;;;;;5094766;28;20023;-66
2024/02/12 14:48:12;;;;;;;0.10;0.10;;;;;;;;;;5095123;28;20050;-66
2024/02/12 14:50:38;;;;;;;0.00;0.00;;;;;;;;;;5094975;28;20252;-67
2024/02/12 14:53:03;;;;;;;0.10;0.10;;;;;;;;;;5095017;28;20085;-67
2024/02/12 14:55:28;;;;;;;0.10;0.10;;;;;;;;;;5094871;28;20406;-67
2024/02/12 14:57:54;;;;;;;0.00;0.00;;;;;;;;;;5094886;28;20056;-66
2024/02/12 15:00:23;;;;;;;0.82;0.50;;;;;;;;;;5095087;28;20244;-66
2024/02/12 15:02:49;;;;;;;0.10;0.10;;;;;;;;;;5094757;28;20020;-67
2024/02/12 15:05:15;;;;;;;0.10;0.10;;;;;;;;;;5094970;28;20471;-66
2024/02/12 15:07:47;;;;;;;0.10;0.10;;;;;;;;;;5094889;28;20077;-66
2024/02/12 15:10:21;;;;;;;0.00;0.00;;;;;;;;;;5094929;28;20495;-67
2024/02/12 15:13:00;;;;;;;0.10;0.10;;;;;;;;;;5094552;28;20434;-66
2024/02/12 15:15:26;;;;;;;0.10;0.10;;;;;;;;;;5094451;28;20103;-66
2024/02/12 15:17:54;;;;;;;0.00;0.00;;;;;;;;;;5094753;28;20137;-66
2024/02/12 15:20:20;;;;;;;0.00;0.00;;;;;;;;;;5094273;28;20054;-66
2024/02/12 15:22:46;;;;;;;0.00;0.00;;;;;;;;;;5094421;28;20012;-66
2024/02/12 15:25:11;;;;;;;0.30;0.30;;;;;;;;;;5094657;28;20024;-66
2024/02/12 15:27:38;;;;;;;0.00;0.00;;;;;;;;;;5094344;28;20107;-66
2024/02/12 15:30:06;;;;;;;0.08;0.08;;;;;;;;;;5094553;28;20107;-67
2024/02/12 15:32:32;;;;;;;0.22;0.22;;;;;;;;;;5094515;28;20475;-67
2024/02/12 15:35:03;;;;;;;0.00;0.00;;;;;;;;;;5094369;28;20050;-66
2024/02/12 15:37:28;;;;;;;0.10;0.10;;;;;;;;;;5094535;28;20016;-67
2024/02/12 15:39:53;;;;;;;0.00;0.00;;;;;;;;;;5075864;28;20031;-67
2024/02/12 15:42:22;;;;;;;0.03;0.03;;;;;;;;;;5094143;28;20073;-66
2024/02/12 15:44:48;;;;;;;0.32;0.32;;;;;;;;;;5094017;28;20241;-66
2024/02/12 15:47:13;;;;;;;0.00;0.00;;;;;;;;;;5094246;28;20471;-66
2024/02/12 15:49:40;;;;;;;0.80;0.47;;;;;;;;;;5094160;28;20084;-66
2024/02/12 15:52:06;;;;;;;0.00;0.00;;;;;;;;;;5094161;28;20031;-66
2024/02/12 15:54:32;;;;;;;0.10;0.10;;;;;;;;;;5093730;28;20024;-66
2024/02/12 15:57:00;;;;;;;0.00;0.00;;;;;;;;;;5090606;28;20032;-67
2024/02/12 15:59:25;;;;;;;0.03;0.03;;;;;;;;;;5093062;28;20016;-66
2024/02/12 16:01:52;;;;;;;0.00;0.00;;;;;;;;;;5093766;28;20480;-66
2024/02/12 16:04:17;;;;;;;0.00;0.00;;;;;;;;;;5093643;28;20024;-66
2024/02/12 16:06:42;;;;;;;0.00;0.00;;;;;;;;;;5093704;28;20035;-66
2024/02/12 16:09:09;;;;;;;0.00;0.00;;;;;;;;;;5093702;28;20313;-66
2024/02/12 16:11:34;;;;;;;0.20;0.20;;;;;;;;;;5091115;28;20259;-67
2024/02/12 16:13:59;;;;;;;0.00;0.00;;;;;;;;;;5087624;28;20029;-67
2024/02/12 16:16:28;;;;;;;0.00;0.00;;;;;;;;;;5073104;28;20068;-66
2024/02/12 16:18:55;;;;;;;0.13;0.13;;;;;;;;;;5073581;28;20024;-66
2024/02/12 16:21:21;;;;;;;0.00;0.00;;;;;;;;;;5068620;28;20075;-66
2024/02/12 16:23:47;;;;;;;0.10;0.10;;;;;;;;;;5073514;28;20103;-66
2024/02/12 16:26:12;;;;;;;0.40;0.20;;;;;;;;;;5073248;28;20087;-66
2024/02/12 16:28:37;;;;;;;0.00;0.00;;;;;;;;;;5074257;28;20021;-66
2024/02/12 16:31:04;;;;;;;0.00;0.00;;;;;;;;;;5073235;28;20337;-66
2024/02/12 16:33:30;;;;;;;0.00;0.00;;;;;;;;;;5073259;28;20028;-66
2024/02/12 16:35:56;;;;;;;0.08;0.08;;;;;;;;;;5073150;28;20028;-66
2024/02/12 16:38:21;;;;;;;0.05;0.05;;;;;;;;;;5082856;28;20499;-66
2024/02/12 16:40:48;;;;;;;0.08;0.08;;;;;;;;;;5076242;28;20025;-66
2024/02/12 16:43:13;;;;;;;0.10;0.10;;;;;;;;;;5076976;28;20237;-66
2024/02/12 16:45:39;;;;;;;0.00;0.00;;;;;;;;;;5093310;28;20487;-66
2024/02/12 16:48:04;;;;;;;0.40;0.25;;;;;;;;;;5091556;28;20028;-70
2024/02/12 16:50:29;;;;;;;0.10;0.10;;;;;;;;;;5091572;28;20024;-70
2024/02/12 16:52:55;;;;;;;0.03;0.03;;;;;;;;;;5093816;28;20023;-70
2024/02/12 16:55:20;;;;;;;0.47;0.30;;;;;;;;;;5097935;28;20514;-70
2024/02/12 16:57:48;;;;;;;0.25;0.25;;;;;;;;;;5073256;28;20683;-70
2024/02/12 17:00:17;;;;;;;0.10;0.10;;;;;;;;;;5072066;28;20016;-71
2024/02/12 17:02:42;;;;;;;0.10;0.10;;;;;;;;;;5072308;28;20127;-70
2024/02/12 17:05:11;;;;;;;0.45;0.45;;;;;;;;;;5071854;28;20508;-70
2024/02/12 17:07:37;;;;;;;0.00;0.00;;;;;;;;;;5079132;28;20038;-70
2024/02/12 17:10:08;;;;;;;0.10;0.10;;;;;;;;;;5076313;28;20473;-70
2024/02/12 17:12:34;;;;;;;0.10;0.10;;;;;;;;;;5076010;28;20025;-70
2024/02/12 17:15:00;;;;;;;0.10;0.10;;;;;;;;;;5077460;28;20352;-70